메인 페이지
METAR-TAF:

METAR-TAF

공항 :

이바토 공항

안타나나리보, 마다가스카르

위도: 18-48S, 경도: 047-29E, 고도: 1279m

현재 날씨관측

예보는 27분 전, 19:00시(UTC)에 발표되었습니다.
남동5kt동남동풍과 풍을 오가는
온도 13°C
습도 88%
기압 1025 hPa
시정 10km 이상
고도 2000ft 상공 구름 조금

METAR: FMMI 201900Z 14005KT 110V180 9999 FEW020 13/11 Q1025 NOSIG

시각: 22:27 (19:27 UTC)

예보

예보는 2 시간 27분 전, 17:00시(UTC)에 발표되었습니다.
예보 대상 시간: 20일 18시부터 21일 24시까지 (UTC)
동남동6kt
시정 10km 이상
고도 1700ft 상공 구름 조금
확률 40%
21일 02시부터 21일 06시까지 (UTC)
시정: 0400m
고도 400ft 상공 구름 많음
안개

TAF: FMMI 201700Z 2018/2124 12006KT 9999 FEW017 PROB40 2102/2106 0400 FG BKN004

4,000개 이상의 공항 관측 자료 및 예보 (METAR 및 TAF 보고).

지도상에서 검색 가능한 기상관측소가 노란 점과 빨간 점으로 표시되어 있습니다.

기상관측소 명을 보려면 표시 위로 마우스를 이동하세요.

날씨 관측과 예보를 보려면 클릭하세요.

지도 변경 : 확대하려면 엑스 표시가 있는 녹색 버튼, 축소하려면 빼기 표시가 있는 녹색 버튼, 다음 페이지의 지도를 보려면 녹색 화살표를 클릭하세요.


METAR-TAF: